Time;durP1;ratioP1;P1;durP2;ratioP2;P2;SDS_P1;SDS_P2;PMS_P1;PMS_P2;Temp;Humidity;BMP_temperature;BMP_pressure;BME280_temperature;BME280_humidity;BME280_pressure;Samples;Min_cycle;Max_cycle;Signal;HPM_P1;HPM_P2
2023/11/28 00:00:30;;;;;;;4.03;3.63;;;3.30;99.90;;;;;;4167946;28;20449;-73
2023/11/28 00:02:30;;;;;;;4.40;3.80;;;3.40;99.90;;;;;;4151891;28;20264;-72
2023/11/28 00:04:31;;;;;;;4.47;3.75;;;3.40;99.90;;;;;;4153317;28;20124;-73
2023/11/28 00:06:32;;;;;;;5.40;3.88;;;3.40;99.90;;;;;;4168508;28;20043;-72
2023/11/28 00:08:32;;;;;;;4.15;3.72;;;3.40;99.90;;;;;;4169541;28;20029;-72
2023/11/28 00:10:33;;;;;;;5.38;3.38;;;3.40;99.90;;;;;;4169249;28;20059;-71
2023/11/28 00:12:33;;;;;;;4.80;4.20;;;3.40;99.90;;;;;;4170338;28;20029;-72
2023/11/28 00:14:34;;;;;;;4.85;4.35;;;3.40;99.90;;;;;;4169756;28;20040;-73
2023/11/28 00:16:34;;;;;;;3.90;3.50;;;3.40;99.90;;;;;;4167267;28;20036;-72
2023/11/28 00:18:35;;;;;;;3.60;3.30;;;3.50;99.90;;;;;;4170009;28;20029;-72
2023/11/28 00:20:36;;;;;;;3.45;3.10;;;3.50;99.90;;;;;;4151163;28;20034;-71
2023/11/28 00:22:36;;;;;;;4.47;3.78;;;3.50;99.90;;;;;;4170105;28;20487;-72
2023/11/28 00:24:37;;;;;;;3.63;3.22;;;3.50;99.90;;;;;;4170502;28;20506;-71
2023/11/28 00:26:38;;;;;;;3.35;3.05;;;3.50;99.90;;;;;;4168951;28;20044;-72
2023/11/28 00:28:38;;;;;;;4.10;3.45;;;3.50;99.90;;;;;;4151794;28;20032;-73
2023/11/28 00:30:40;;;;;;;4.45;3.10;;;3.50;99.90;;;;;;4148525;28;20420;-74
2023/11/28 00:32:41;;;;;;;5.05;3.60;;;3.50;99.90;;;;;;4151960;28;20033;-72
2023/11/28 00:34:41;;;;;;;4.03;3.50;;;3.60;99.90;;;;;;4152748;28;20088;-72
2023/11/28 00:36:42;;;;;;;3.40;3.10;;;3.60;99.90;;;;;;4167459;28;20055;-73
2023/11/28 00:38:43;;;;;;;3.40;3.10;;;3.60;99.90;;;;;;4168051;28;20037;-72
2023/11/28 00:40:44;;;;;;;3.65;3.20;;;3.60;99.90;;;;;;4166572;28;20083;-72
2023/11/28 00:42:45;;;;;;;3.25;2.95;;;3.60;99.90;;;;;;4168034;28;20410;-73
2023/11/28 00:44:45;;;;;;;3.08;2.78;;;3.60;99.90;;;;;;4168816;28;20048;-74
2023/11/28 00:46:46;;;;;;;3.50;3.03;;;3.60;99.90;;;;;;4167330;28;20029;-73
2023/11/28 00:48:47;;;;;;;2.60;2.40;;;3.60;99.90;;;;;;4150649;28;20042;-72
2023/11/28 00:50:47;;;;;;;2.78;2.45;;;3.60;99.90;;;;;;4167119;28;20049;-73
2023/11/28 00:52:48;;;;;;;2.58;2.38;;;3.70;99.90;;;;;;4133147;28;20084;-71
2023/11/28 00:54:49;;;;;;;3.72;2.47;;;3.70;99.90;;;;;;4150425;28;20498;-71
2023/11/28 00:56:50;;;;;;;2.17;1.98;;;3.70;99.90;;;;;;4167295;28;20076;-71
2023/11/28 00:58:51;;;;;;;2.25;1.83;;;3.70;99.90;;;;;;4166998;28;20049;-72
2023/11/28 01:00:51;;;;;;;2.17;1.98;;;3.70;99.90;;;;;;4166342;28;20037;-72
2023/11/28 01:02:52;;;;;;;1.88;1.67;;;3.70;99.90;;;;;;4168198;28;20123;-72
2023/11/28 01:04:53;;;;;;;2.13;1.50;;;3.70;99.90;;;;;;4166111;28;20025;-71
2023/11/28 01:06:53;;;;;;;1.70;1.60;;;3.70;99.90;;;;;;4166895;28;20568;-72
2023/11/28 01:08:57;;;;;;;2.00;1.90;;;3.80;99.90;;;;;;4164774;28;20044;-76
2023/11/28 01:10:58;;;;;;;1.67;1.58;;;3.80;99.90;;;;;;4147573;28;20159;-77
2023/11/28 01:12:58;;;;;;;2.05;1.77;;;3.70;99.90;;;;;;4166055;28;20036;-76
2023/11/28 01:14:59;;;;;;;1.40;1.30;;;3.80;99.90;;;;;;4149239;28;20045;-75
2023/11/28 01:17:00;;;;;;;1.52;1.42;;;3.70;99.90;;;;;;4165056;28;20033;-77
2023/11/28 01:19:01;;;;;;;1.40;1.30;;;3.80;99.90;;;;;;4148964;28;20029;-77
2023/11/28 01:21:02;;;;;;;1.60;1.50;;;3.70;99.90;;;;;;4166738;28;20410;-76
2023/11/28 01:23:03;;;;;;;2.15;1.70;;;3.80;99.90;;;;;;4168742;28;20523;-75
2023/11/28 01:25:05;;;;;;;1.80;1.60;;;3.80;99.90;;;;;;4152133;28;20050;-74
2023/11/28 01:27:06;;;;;;;2.05;1.85;;;3.80;99.90;;;;;;4168930;28;20037;-77
2023/11/28 01:29:06;;;;;;;2.00;1.60;;;3.70;99.90;;;;;;4167475;28;20406;-75
2023/11/28 01:31:10;;;;;;;2.70;2.45;;;3.70;99.90;;;;;;4168060;28;20037;-77
2023/11/28 01:33:11;;;;;;;2.40;2.20;;;3.70;99.90;;;;;;4169918;28;20033;-77
2023/11/28 01:35:12;;;;;;;2.20;2.00;;;3.70;99.90;;;;;;4168050;28;20033;-76
2023/11/28 01:37:13;;;;;;;3.13;2.10;;;3.70;99.90;;;;;;4164389;28;20673;-76
2023/11/28 01:39:14;;;;;;;2.70;2.40;;;3.70;99.90;;;;;;4149005;28;20759;-76
2023/11/28 01:41:14;;;;;;;2.90;2.60;;;3.70;99.90;;;;;;4166289;28;20040;-76
2023/11/28 01:43:23;;;;;;;3.10;2.78;;;3.80;99.90;;;;;;4166561;28;20414;-75
2023/11/28 01:45:24;;;;;;;2.67;2.33;;;3.80;99.90;;;;;;4165639;28;20087;-74
2023/11/28 01:47:26;;;;;;;2.30;2.00;;;3.70;99.90;;;;;;4165964;28;20107;-77
2023/11/28 01:49:34;;;;;;;3.03;2.63;;;3.70;99.90;;;;;;4165902;28;20049;-75
2023/11/28 01:51:38;;;;;;;2.75;2.50;;;3.70;99.90;;;;;;4152127;28;20194;-74
2023/11/28 01:53:40;;;;;;;2.85;2.47;;;3.70;99.90;;;;;;4168396;28;20037;-76
2023/11/28 01:55:41;;;;;;;3.33;2.85;;;3.70;99.90;;;;;;4169563;28;20033;-75
2023/11/28 01:57:42;;;;;;;2.72;2.53;;;3.70;99.90;;;;;;4165511;28;20045;-76
2023/11/28 01:59:46;;;;;;;2.67;2.47;;;3.50;99.90;;;;;;4160107;28;20037;-76
2023/11/28 02:01:46;;;;;;;3.17;2.88;;;3.60;99.90;;;;;;4148259;28;20029;-76
2023/11/28 02:03:48;;;;;;;3.05;2.63;;;3.60;99.90;;;;;;4166970;28;20048;-76
2023/11/28 02:05:49;;;;;;;3.13;2.78;;;3.60;99.90;;;;;;4167288;28;20124;-76
2023/11/28 02:07:50;;;;;;;3.05;2.75;;;3.60;99.90;;;;;;4164269;28;20506;-74
2023/11/28 02:09:50;;;;;;;3.17;2.85;;;3.60;99.90;;;;;;4167979;28;20041;-76
2023/11/28 02:11:52;;;;;;;3.13;2.80;;;3.60;99.90;;;;;;4165147;28;20096;-77
2023/11/28 02:13:52;;;;;;;3.05;2.47;;;3.60;99.90;;;;;;4170683;28;20033;-76
2023/11/28 02:15:54;;;;;;;3.97;2.85;;;3.60;99.90;;;;;;4166106;28;20120;-75
2023/11/28 02:17:55;;;;;;;10.60;3.28;;;3.60;99.90;;;;;;4135836;28;20044;-76
2023/11/28 02:19:57;;;;;;;3.17;2.78;;;3.60;99.90;;;;;;4167535;28;20065;-76
2023/11/28 02:21:58;;;;;;;3.45;2.97;;;3.60;99.90;;;;;;4155260;28;20056;-74
2023/11/28 02:23:59;;;;;;;3.30;3.00;;;3.60;99.90;;;;;;4169087;28;20037;-76
2023/11/28 02:26:05;;;;;;;3.33;3.00;;;3.60;99.90;;;;;;4155797;28;20088;-76
2023/11/28 02:28:06;;;;;;;3.40;3.00;;;3.70;99.90;;;;;;4173652;28;20076;-76
2023/11/28 02:30:07;;;;;;;3.63;3.33;;;3.60;99.90;;;;;;4162521;28;20454;-75
2023/11/28 02:32:08;;;;;;;9.32;3.22;;;3.70;99.90;;;;;;4173634;28;20075;-76
2023/11/28 02:34:09;;;;;;;4.00;3.53;;;3.60;99.90;;;;;;4169774;28;20037;-76
2023/11/28 02:36:10;;;;;;;4.25;3.80;;;3.70;99.90;;;;;;4168589;28;20029;-74
2023/11/28 02:38:14;;;;;;;4.70;4.20;;;3.60;99.90;;;;;;4171843;28;20029;-76
2023/11/28 02:40:15;;;;;;;4.63;3.95;;;3.60;99.90;;;;;;4169775;28;20042;-76
2023/11/28 02:42:15;;;;;;;4.63;4.00;;;3.60;99.90;;;;;;4170857;28;20402;-76
2023/11/28 02:44:16;;;;;;;5.32;4.47;;;3.60;99.90;;;;;;4155184;28;20160;-76
2023/11/28 02:46:17;;;;;;;4.97;4.28;;;3.70;99.90;;;;;;4170649;28;20044;-75
2023/11/28 02:48:18;;;;;;;5.90;4.43;;;3.70;99.90;;;;;;4150392;28;20025;-75
2023/11/28 02:50:18;;;;;;;5.15;4.20;;;3.70;99.90;;;;;;4168390;28;20049;-75
2023/11/28 02:52:19;;;;;;;4.82;4.20;;;3.70;99.90;;;;;;4167419;28;20049;-75
2023/11/28 02:54:19;;;;;;;5.55;4.82;;;3.70;99.90;;;;;;4165540;28;20041;-76
2023/11/28 02:56:20;;;;;;;5.57;4.60;;;3.70;99.90;;;;;;4152750;28;20029;-76
2023/11/28 02:58:21;;;;;;;5.18;4.32;;;3.70;99.90;;;;;;4148957;28;20837;-74
2023/11/28 03:00:21;;;;;;;5.03;3.83;;;3.70;99.90;;;;;;4170240;28;20036;-76
2023/11/28 03:02:22;;;;;;;4.78;4.35;;;3.60;99.90;;;;;;4152733;28;20089;-75
2023/11/28 03:04:22;;;;;;;7.03;5.03;;;3.60;99.90;;;;;;4164790;28;20125;-75
2023/11/28 03:06:23;;;;;;;6.43;4.90;;;3.70;99.90;;;;;;4168595;28;20037;-76
2023/11/28 03:08:24;;;;;;;5.25;4.32;;;3.70;99.90;;;;;;4150334;28;20551;-76
2023/11/28 03:10:24;;;;;;;5.47;4.60;;;3.70;99.90;;;;;;4151001;28;20042;-76
2023/11/28 03:12:25;;;;;;;6.20;5.00;;;3.70;99.90;;;;;;4152382;28;20046;-73
2023/11/28 03:14:26;;;;;;;6.07;4.55;;;3.70;99.90;;;;;;4169565;28;20037;-76
2023/11/28 03:16:27;;;;;;;6.55;4.70;;;3.70;99.90;;;;;;4151253;28;20041;-73
2023/11/28 03:18:27;;;;;;;7.50;5.20;;;3.70;99.90;;;;;;4150861;28;20044;-74
2023/11/28 03:20:28;;;;;;;7.55;5.40;;;3.80;99.90;;;;;;4162862;28;20042;-73
2023/11/28 03:22:29;;;;;;;6.22;5.18;;;3.80;99.90;;;;;;4167906;28;20396;-73
2023/11/28 03:24:31;;;;;;;6.28;5.68;;;3.70;99.90;;;;;;4170455;28;20461;-75
2023/11/28 03:26:32;;;;;;;6.50;5.68;;;3.80;99.90;;;;;;4166544;28;20033;-73
2023/11/28 03:28:32;;;;;;;7.13;5.50;;;3.70;99.90;;;;;;4172882;28;20485;-75
2023/11/28 03:30:33;;;;;;;8.07;6.93;;;3.70;99.90;;;;;;4165290;28;20056;-74
2023/11/28 03:32:33;;;;;;;6.30;5.45;;;3.70;99.90;;;;;;4171586;28;20052;-76
2023/11/28 03:34:34;;;;;;;4.93;4.43;;;3.70;99.90;;;;;;4173019;28;20072;-76
2023/11/28 03:36:35;;;;;;;6.18;5.20;;;3.60;99.90;;;;;;4165442;28;20439;-76
2023/11/28 03:38:37;;;;;;;6.03;5.43;;;3.60;99.90;;;;;;4147378;28;20034;-74
2023/11/28 03:40:38;;;;;;;5.70;4.97;;;3.70;99.90;;;;;;4150882;28;20159;-75
2023/11/28 03:42:38;;;;;;;7.07;6.30;;;3.60;99.90;;;;;;4154147;28;20037;-75
2023/11/28 03:44:39;;;;;;;7.10;5.80;;;3.70;99.90;;;;;;4165074;28;20057;-75
2023/11/28 03:46:40;;;;;;;7.22;6.47;;;3.70;99.90;;;;;;4167821;28;20042;-76
2023/11/28 03:48:40;;;;;;;7.78;6.63;;;3.70;99.90;;;;;;4167692;28;20513;-75
2023/11/28 03:50:41;;;;;;;7.25;6.50;;;3.60;99.90;;;;;;4172760;28;20109;-75
2023/11/28 03:52:41;;;;;;;7.82;5.95;;;3.60;99.90;;;;;;4174455;28;20029;-75
2023/11/28 03:54:42;;;;;;;7.32;5.90;;;3.70;99.90;;;;;;4167113;28;20505;-75
2023/11/28 03:56:43;;;;;;;8.18;6.05;;;3.70;99.90;;;;;;4164852;28;20029;-75
2023/11/28 03:58:44;;;;;;;6.55;5.72;;;3.70;99.90;;;;;;4169128;28;20030;-74
2023/11/28 04:00:44;;;;;;;7.85;6.28;;;3.70;99.90;;;;;;4166229;28;20449;-75
2023/11/28 04:02:45;;;;;;;8.88;6.93;;;3.60;99.90;;;;;;4163824;28;20028;-74
2023/11/28 04:04:46;;;;;;;9.30;7.40;;;3.60;99.90;;;;;;4170127;28;20486;-75
2023/11/28 04:06:46;;;;;;;8.85;6.95;;;3.70;99.90;;;;;;4171479;28;20029;-76
2023/11/28 04:08:48;;;;;;;9.40;7.00;;;3.70;99.90;;;;;;4171038;28;20072;-75
2023/11/28 04:10:49;;;;;;;9.88;7.45;;;3.60;99.90;;;;;;4168959;28;20045;-75
2023/11/28 04:12:49;;;;;;;11.20;7.72;;;3.70;99.90;;;;;;4164553;28;20487;-73
2023/11/28 04:14:50;;;;;;;9.60;7.90;;;3.60;99.90;;;;;;4166767;28;20487;-75
2023/11/28 04:16:50;;;;;;;9.93;7.35;;;3.60;99.90;;;;;;4165639;28;20549;-75
2023/11/28 04:18:52;;;;;;;10.57;8.05;;;3.60;99.90;;;;;;4169436;28;20022;-75
2023/11/28 04:20:52;;;;;;;10.05;7.53;;;3.70;99.90;;;;;;4148701;28;20037;-75
2023/11/28 04:22:53;;;;;;;9.15;7.10;;;3.70;99.90;;;;;;4152397;28;20070;-75
2023/11/28 04:24:54;;;;;;;9.40;7.15;;;3.70;99.90;;;;;;4170357;28;20685;-74
2023/11/28 04:26:54;;;;;;;8.90;7.30;;;3.70;99.90;;;;;;4173484;28;20060;-75
2023/11/28 04:28:55;;;;;;;9.07;7.38;;;3.70;99.90;;;;;;4172876;28;20040;-74
2023/11/28 04:30:55;;;;;;;10.82;6.88;;;3.70;99.90;;;;;;4165349;28;20052;-75
2023/11/28 04:32:56;;;;;;;10.70;6.38;;;3.70;99.90;;;;;;4156786;28;20057;-74
2023/11/28 04:34:57;;;;;;;8.60;5.93;;;3.70;99.90;;;;;;4168590;28;20379;-75
2023/11/28 04:36:58;;;;;;;7.95;6.10;;;3.70;99.90;;;;;;4168812;28;20040;-74
2023/11/28 04:39:05;;;;;;;8.25;6.00;;;3.70;99.90;;;;;;4170827;28;20052;-73
2023/11/28 04:41:08;;;;;;;7.75;5.68;;;3.50;99.90;;;;;;4148280;28;20049;-72
2023/11/28 04:43:09;;;;;;;;;;;3.50;99.90;;;;;;4169608;28;20467;-70
2023/11/28 04:45:11;;;;;;;10.13;6.70;;;3.60;99.90;;;;;;4171541;28;19915;-72
2023/11/28 04:47:12;;;;;;;10.88;6.53;;;3.50;99.90;;;;;;4171861;28;20029;-72
2023/11/28 04:49:14;;;;;;;10.35;6.47;;;3.60;99.90;;;;;;4145595;28;20096;-71
2023/11/28 04:51:14;;;;;;;7.88;6.10;;;3.60;99.90;;;;;;4169135;28;20046;-71
2023/11/28 04:53:15;;;;;;;9.35;6.10;;;3.70;99.90;;;;;;4154345;28;20036;-70
2023/11/28 04:55:15;;;;;;;8.43;6.15;;;3.50;99.90;;;;;;4170555;28;20033;-72
2023/11/28 04:57:16;;;;;;;9.40;6.60;;;3.60;99.90;;;;;;4172182;28;20433;-71
2023/11/28 04:59:17;;;;;;;9.35;6.10;;;3.60;99.90;;;;;;4168901;28;20427;-71
2023/11/28 05:01:18;;;;;;;7.55;5.68;;;3.60;99.90;;;;;;4166369;28;20466;-73
2023/11/28 05:03:18;;;;;;;7.57;5.53;;;3.60;99.90;;;;;;4168305;28;20214;-70
2023/11/28 05:05:19;;;;;;;7.38;6.15;;;3.50;99.90;;;;;;4164899;28;20437;-71
2023/11/28 05:07:19;;;;;;;10.82;6.85;;;3.50;99.90;;;;;;4136972;28;20030;-71
2023/11/28 05:09:20;;;;;;;11.00;6.40;;;3.60;99.90;;;;;;4169237;28;20040;-70
2023/11/28 05:11:21;;;;;;;8.45;6.05;;;3.60;99.90;;;;;;4151672;28;20115;-70
2023/11/28 05:13:22;;;;;;;9.73;6.45;;;3.60;99.90;;;;;;4169402;28;20049;-72
2023/11/28 05:15:23;;;;;;;14.13;7.20;;;3.60;99.90;;;;;;4146043;28;20137;-71
2023/11/28 05:17:24;;;;;;;7.03;5.63;;;3.60;99.90;;;;;;4171074;28;20455;-72
2023/11/28 05:19:24;;;;;;;9.20;6.47;;;3.60;99.90;;;;;;4153431;28;20044;-72
2023/11/28 05:21:25;;;;;;;10.18;6.57;;;3.60;99.90;;;;;;4168535;28;20139;-71
2023/11/28 05:23:28;;;;;;;9.85;7.15;;;3.60;99.90;;;;;;4169337;28;20510;-71
2023/11/28 05:25:29;;;;;;;10.95;6.53;;;3.60;99.90;;;;;;4169244;28;20049;-71
2023/11/28 05:27:29;;;;;;;10.45;6.38;;;3.60;99.90;;;;;;4170539;28;20090;-71
2023/11/28 05:29:30;;;;;;;9.90;6.18;;;3.60;99.90;;;;;;4152482;28;20037;-71
2023/11/28 05:31:30;;;;;;;8.32;5.85;;;3.60;99.90;;;;;;4168130;28;20045;-71
2023/11/28 05:33:31;;;;;;;11.38;6.00;;;3.60;99.90;;;;;;4169028;28;20036;-71
2023/11/28 05:35:33;;;;;;;10.73;6.45;;;3.50;99.90;;;;;;4150621;28;20034;-72
2023/11/28 05:37:33;;;;;;;7.23;5.47;;;3.50;99.90;;;;;;4147228;28;20029;-71
2023/11/28 05:39:34;;;;;;;11.63;6.50;;;3.60;99.90;;;;;;4166000;28;20290;-71
2023/11/28 05:41:34;;;;;;;10.40;6.30;;;3.50;99.90;;;;;;4170120;28;20111;-70
2023/11/28 05:43:35;;;;;;;9.02;6.22;;;3.50;99.90;;;;;;4170909;28;20033;-71
2023/11/28 05:45:36;;;;;;;7.28;5.28;;;3.50;99.90;;;;;;4166068;28;20036;-72
2023/11/28 05:47:37;;;;;;;8.20;5.20;;;3.50;99.90;;;;;;4170051;28;20059;-73
2023/11/28 05:49:38;;;;;;;8.80;6.18;;;3.50;99.90;;;;;;4163985;28;20240;-74
2023/11/28 05:51:38;;;;;;;9.15;5.50;;;3.50;99.90;;;;;;4165245;28;20047;-74
2023/11/28 05:53:39;;;;;;;7.53;5.43;;;3.50;99.90;;;;;;4130252;28;20510;-73
2023/11/28 05:55:39;;;;;;;6.38;4.57;;;3.40;99.90;;;;;;4166262;28;20478;-74
2023/11/28 05:57:40;;;;;;;9.35;5.13;;;3.40;99.90;;;;;;4171765;28;20492;-74
2023/11/28 05:59:41;;;;;;;8.07;4.70;;;3.40;99.90;;;;;;4162857;28;20112;-74
2023/11/28 06:02:01;;;;;;;5.97;4.55;;;3.40;99.90;;;;;;4169739;28;20040;-74
2023/11/28 06:04:01;;;;;;;6.57;4.70;;;3.40;99.90;;;;;;4167395;28;20049;-74
2023/11/28 06:06:02;;;;;;;6.70;4.32;;;3.40;99.90;;;;;;4162260;28;20037;-74
2023/11/28 06:08:03;;;;;;;8.45;4.20;;;3.30;99.90;;;;;;4170007;28;20037;-73
2023/11/28 06:10:04;;;;;;;5.28;3.75;;;3.30;99.90;;;;;;4164482;28;20033;-73
2023/11/28 06:12:05;;;;;;;6.88;4.03;;;3.30;99.90;;;;;;4169528;28;20052;-73
2023/11/28 06:14:06;;;;;;;5.85;3.50;;;3.30;99.90;;;;;;4171752;28;20037;-74
2023/11/28 06:16:07;;;;;;;5.82;3.28;;;3.20;99.90;;;;;;4169885;28;20522;-73
2023/11/28 06:18:09;;;;;;;7.22;3.25;;;3.20;99.90;;;;;;4164598;28;20065;-73
2023/11/28 06:20:10;;;;;;;5.20;3.30;;;3.20;99.90;;;;;;4147003;28;20091;-73
2023/11/28 06:22:11;;;;;;;5.00;3.35;;;3.10;99.90;;;;;;4151974;28;20534;-73
2023/11/28 06:24:12;;;;;;;4.25;2.95;;;3.10;99.90;;;;;;4151290;28;20041;-73
2023/11/28 06:26:12;;;;;;;5.70;3.10;;;3.10;99.90;;;;;;4150371;28;20045;-73
2023/11/28 06:28:13;;;;;;;4.40;3.13;;;3.10;99.90;;;;;;4146188;28;20116;-73
2023/11/28 06:30:14;;;;;;;5.00;2.97;;;3.10;99.90;;;;;;4149714;28;20045;-74
2023/11/28 06:32:14;;;;;;;4.93;3.25;;;3.10;99.90;;;;;;4149719;28;20504;-74
2023/11/28 06:34:15;;;;;;;5.05;3.38;;;3.00;99.90;;;;;;4150552;28;20132;-74
2023/11/28 06:36:21;;;;;;;4.85;3.22;;;3.00;99.90;;;;;;4147326;28;20029;-74
2023/11/28 06:38:22;;;;;;;5.72;3.38;;;2.90;99.90;;;;;;4145710;28;20364;-74
2023/11/28 06:40:25;;;;;;;3.28;2.58;;;2.90;99.90;;;;;;4144598;28;20037;-73
2023/11/28 06:42:25;;;;;;;4.78;3.00;;;2.90;99.90;;;;;;4143746;28;20650;-74
2023/11/28 06:44:27;;;;;;;4.88;2.83;;;2.90;99.90;;;;;;4150493;28;20041;-74
2023/11/28 06:46:27;;;;;;;3.53;2.60;;;2.90;99.90;;;;;;4148763;28;20432;-74
2023/11/28 06:48:28;;;;;;;3.75;2.70;;;2.80;99.90;;;;;;4146861;28;20052;-74
2023/11/28 06:50:29;;;;;;;4.18;2.70;;;2.80;99.90;;;;;;4150027;28;20847;-74
2023/11/28 06:52:29;;;;;;;3.33;2.50;;;2.80;99.90;;;;;;4148990;28;20135;-72
2023/11/28 06:54:30;;;;;;;4.43;2.58;;;2.80;99.90;;;;;;4152570;28;20117;-72
2023/11/28 06:56:31;;;;;;;5.60;2.83;;;2.80;99.90;;;;;;4149241;28;20033;-72
2023/11/28 06:58:31;;;;;;;5.53;2.78;;;2.80;99.90;;;;;;4149255;28;20108;-72
2023/11/28 07:00:32;;;;;;;4.57;2.53;;;2.70;99.90;;;;;;4148462;28;20048;-70
2023/11/28 07:02:32;;;;;;;3.58;2.65;;;2.70;99.90;;;;;;4149810;28;20045;-70
2023/11/28 07:04:33;;;;;;;5.40;3.05;;;2.70;99.90;;;;;;4146969;28;20052;-72
2023/11/28 07:06:33;;;;;;;4.97;2.60;;;2.70;99.90;;;;;;4148308;28;20112;-71
2023/11/28 07:08:34;;;;;;;3.75;2.78;;;2.60;99.90;;;;;;4151788;28;20030;-72
2023/11/28 07:10:35;;;;;;;3.08;2.30;;;2.60;99.90;;;;;;4149653;28;20049;-71
2023/11/28 07:12:35;;;;;;;5.03;2.80;;;2.60;99.90;;;;;;4152646;28;20057;-70
2023/11/28 07:14:36;;;;;;;4.30;2.85;;;2.60;99.90;;;;;;4153632;28;20029;-71
2023/11/28 07:16:37;;;;;;;4.25;2.70;;;2.50;99.90;;;;;;4151570;28;20034;-73
2023/11/28 07:18:37;;;;;;;4.07;2.63;;;2.60;99.90;;;;;;4153521;28;20395;-72
2023/11/28 07:20:38;;;;;;;4.60;2.92;;;2.60;99.90;;;;;;4151904;28;22424;-72
2023/11/28 07:22:39;;;;;;;3.90;2.95;;;2.60;99.90;;;;;;4150881;28;20458;-71
2023/11/28 07:24:39;;;;;;;4.18;2.80;;;2.60;99.90;;;;;;4163510;28;20384;-70
2023/11/28 07:26:40;;;;;;;3.47;2.45;;;2.60;99.90;;;;;;4159761;28;20043;-72
2023/11/28 07:28:41;;;;;;;4.60;2.78;;;2.60;99.90;;;;;;4137873;28;20034;-70
2023/11/28 07:30:44;;;;;;;6.15;3.30;;;2.60;99.90;;;;;;4167299;28;20033;-72
2023/11/28 07:32:45;;;;;;;5.65;3.28;;;2.60;99.90;;;;;;4152760;28;20065;-71
2023/11/28 07:34:46;;;;;;;5.10;3.45;;;2.60;99.90;;;;;;4164939;28;20035;-71
2023/11/28 07:36:47;;;;;;;5.68;3.40;;;2.60;99.90;;;;;;4131969;28;20045;-72
2023/11/28 07:38:49;;;;;;;4.05;3.17;;;2.70;99.90;;;;;;4150601;28;20144;-72
2023/11/28 07:40:50;;;;;;;4.22;3.15;;;2.60;99.90;;;;;;4134939;28;20038;-72
2023/11/28 07:42:50;;;;;;;4.25;2.80;;;2.70;99.90;;;;;;4167471;28;20041;-71
2023/11/28 07:44:51;;;;;;;3.58;2.85;;;2.60;99.90;;;;;;4160842;28;20387;-71
2023/11/28 07:46:51;;;;;;;4.00;2.80;;;2.70;99.90;;;;;;4168423;28;20041;-70
2023/11/28 07:48:52;;;;;;;3.90;2.33;;;2.70;99.90;;;;;;4169411;28;20439;-73
2023/11/28 07:50:53;;;;;;;4.25;2.72;;;2.70;99.90;;;;;;4171131;28;20391;-71
2023/11/28 07:52:53;;;;;;;4.18;2.90;;;2.70;99.90;;;;;;4169848;28;20103;-72
2023/11/28 07:54:54;;;;;;;3.53;2.67;;;2.80;99.90;;;;;;4152422;28;20042;-72
2023/11/28 07:56:54;;;;;;;4.00;2.97;;;2.80;99.90;;;;;;4152673;28;20473;-71
2023/11/28 07:58:55;;;;;;;5.55;2.78;;;2.90;99.90;;;;;;4165932;28;20030;-71
2023/11/28 08:00:56;;;;;;;4.18;2.75;;;3.00;99.90;;;;;;4168182;28;20134;-69
2023/11/28 08:02:57;;;;;;;3.10;2.58;;;3.30;99.90;;;;;;4163624;28;20403;-72
2023/11/28 08:04:58;;;;;;;4.80;3.03;;;3.60;99.90;;;;;;4153429;28;20030;-71
2023/11/28 08:06:58;;;;;;;4.05;2.97;;;3.90;99.90;;;;;;4168860;28;20511;-72
2023/11/28 08:08:59;;;;;;;3.50;2.80;;;4.20;99.90;;;;;;4172437;28;20041;-72
2023/11/28 08:11:00;;;;;;;3.35;2.80;;;4.50;99.90;;;;;;4163621;28;20041;-72
2023/11/28 08:13:00;;;;;;;5.20;3.20;;;4.80;99.90;;;;;;4166762;28;20040;-73
2023/11/28 08:15:01;;;;;;;5.00;2.70;;;4.90;99.90;;;;;;4164676;28;20033;-72
2023/11/28 08:17:01;;;;;;;3.05;2.45;;;5.10;99.90;;;;;;4168121;28;20033;-72
2023/11/28 08:19:02;;;;;;;4.15;2.45;;;5.30;99.90;;;;;;4168105;28;20207;-74
2023/11/28 08:21:06;;;;;;;2.80;2.25;;;5.40;99.90;;;;;;4167399;28;20036;-71
2023/11/28 08:23:07;;;;;;;3.55;2.40;;;5.60;99.90;;;;;;4160676;28;20041;-72
2023/11/28 08:25:08;;;;;;;2.83;2.40;;;5.60;99.90;;;;;;4170789;28;20094;-73
2023/11/28 08:27:08;;;;;;;3.60;2.35;;;5.50;99.90;;;;;;4166959;28;20395;-73
2023/11/28 08:29:09;;;;;;;3.17;2.30;;;5.40;99.90;;;;;;4166450;28;20049;-72
2023/11/28 08:31:10;;;;;;;3.58;2.50;;;5.30;99.90;;;;;;4147521;28;20508;-72
2023/11/28 08:33:10;;;;;;;3.95;2.50;;;5.20;99.90;;;;;;4162660;28;20029;-70
2023/11/28 08:35:12;;;;;;;3.80;2.92;;;5.00;99.90;;;;;;4165550;28;20546;-73
2023/11/28 08:37:12;;;;;;;4.65;3.05;;;4.90;99.90;;;;;;4166605;28;20502;-72
2023/11/28 08:39:15;;;;;;;3.40;2.50;;;4.80;99.90;;;;;;4148832;28;20033;-72
2023/11/28 08:41:15;;;;;;;3.58;2.42;;;4.70;99.90;;;;;;4162615;28;20104;-71
2023/11/28 08:43:16;;;;;;;3.58;2.72;;;4.60;99.90;;;;;;4160247;28;20499;-71
2023/11/28 08:45:16;;;;;;;4.43;3.15;;;4.60;99.90;;;;;;4168171;28;20421;-71
2023/11/28 08:47:17;;;;;;;4.10;2.70;;;4.40;99.90;;;;;;4153001;28;20395;-72
2023/11/28 08:49:18;;;;;;;3.78;2.65;;;4.40;99.90;;;;;;4145499;28;20026;-71
2023/11/28 08:51:20;;;;;;;3.95;2.97;;;4.30;99.90;;;;;;4144693;28;20860;-71
2023/11/28 08:53:20;;;;;;;3.92;3.08;;;4.30;99.90;;;;;;4160386;28;20491;-72
2023/11/28 08:55:21;;;;;;;4.20;3.03;;;4.30;99.90;;;;;;4165618;28;20033;-72
2023/11/28 08:57:21;;;;;;;4.28;3.20;;;4.40;99.90;;;;;;4164411;28;20029;-71
2023/11/28 08:59:22;;;;;;;4.03;2.70;;;4.50;99.90;;;;;;4160390;28;20044;-71
2023/11/28 09:01:23;;;;;;;4.25;3.08;;;4.60;99.90;;;;;;4160395;28;20034;-74
2023/11/28 09:03:23;;;;;;;4.55;3.38;;;4.80;99.90;;;;;;4164198;28;20044;-72
2023/11/28 09:05:24;;;;;;;4.75;2.90;;;5.00;99.90;;;;;;4167262;28;20091;-71
2023/11/28 09:07:24;;;;;;;5.13;2.97;;;5.20;99.90;;;;;;4149754;28;20038;-71
2023/11/28 09:09:25;;;;;;;3.22;2.78;;;5.40;99.90;;;;;;4151030;28;20091;-72
2023/11/28 09:11:26;;;;;;;2.88;2.42;;;5.60;99.90;;;;;;4150721;28;20085;-72
2023/11/28 09:13:27;;;;;;;3.92;2.80;;;5.80;99.90;;;;;;4171707;28;20563;-71
2023/11/28 09:15:27;;;;;;;3.03;2.30;;;6.00;99.90;;;;;;4168721;28;20084;-72
2023/11/28 09:17:28;;;;;;;3.17;2.55;;;6.10;99.90;;;;;;4166176;28;20040;-71
2023/11/28 09:19:29;;;;;;;3.03;2.05;;;6.20;99.90;;;;;;4168324;28;20121;-72
2023/11/28 09:21:29;;;;;;;3.95;2.40;;;6.30;99.90;;;;;;4173063;28;20170;-71
2023/11/28 09:23:31;;;;;;;2.72;2.10;;;6.40;99.90;;;;;;4154199;28;20060;-72
2023/11/28 09:25:31;;;;;;;3.53;2.80;;;6.50;99.90;;;;;;4169435;28;20103;-72
2023/11/28 09:27:32;;;;;;;3.20;1.95;;;6.60;99.90;;;;;;4166809;28;20045;-72
2023/11/28 09:29:34;;;;;;;2.67;2.25;;;6.60;99.90;;;;;;4169184;28;20521;-72
2023/11/28 09:31:36;;;;;;;2.95;2.35;;;6.70;99.90;;;;;;4145621;28;20083;-73
2023/11/28 09:33:36;;;;;;;2.50;1.77;;;6.70;99.90;;;;;;4170165;28;20037;-74
2023/11/28 09:35:40;;;;;;;2.30;1.90;;;6.60;99.90;;;;;;4162455;28;20033;-73
2023/11/28 09:37:40;;;;;;;2.08;1.88;;;6.50;99.90;;;;;;4151429;28;20664;-73
2023/11/28 09:39:41;;;;;;;3.25;2.13;;;6.40;99.90;;;;;;4169614;28;20033;-73
2023/11/28 09:41:44;;;;;;;3.00;1.95;;;6.30;99.90;;;;;;4134582;28;20045;-74
2023/11/28 09:43:48;;;;;;;2.28;2.08;;;6.10;99.90;;;;;;4163947;28;20029;-73
2023/11/28 09:45:49;;;;;;;1.95;1.65;;;6.10;99.90;;;;;;4168618;28;20563;-73
2023/11/28 09:47:52;;;;;;;2.92;2.13;;;6.00;99.90;;;;;;4169162;28;20049;-73
2023/11/28 09:49:55;;;;;;;3.30;2.20;;;5.90;99.90;;;;;;4167983;28;20037;-73
2023/11/28 09:51:57;;;;;;;3.40;2.17;;;5.70;99.90;;;;;;4151958;28;20403;-73
2023/11/28 09:53:58;;;;;;;3.33;2.00;;;5.60;99.90;;;;;;4152696;28;20527;-73
2023/11/28 09:56:02;;;;;;;3.90;2.15;;;5.50;99.90;;;;;;4170585;28;22387;-73
2023/11/28 09:58:03;;;;;;;3.97;2.15;;;5.30;99.90;;;;;;4163209;28;20029;-72
2023/11/28 10:00:06;;;;;;;3.53;2.40;;;5.30;99.90;;;;;;4164884;28;20128;-73
2023/11/28 10:02:07;;;;;;;4.13;2.35;;;5.00;99.90;;;;;;4168783;28;20061;-73
2023/11/28 10:04:08;;;;;;;5.72;2.25;;;5.00;99.90;;;;;;4167856;28;20053;-73
2023/11/28 10:06:13;;;;;;;2.08;1.77;;;4.90;99.90;;;;;;4166377;28;20036;-73
2023/11/28 10:08:15;;;;;;;1.98;1.77;;;4.80;99.90;;;;;;4166067;28;20065;-73
2023/11/28 10:10:19;;;;;;;1.98;1.73;;;4.80;99.90;;;;;;4152606;28;20125;-73
2023/11/28 10:12:20;;;;;;;1.67;1.58;;;4.70;99.90;;;;;;4167467;28;20079;-73
2023/11/28 10:14:21;;;;;;;1.83;1.40;;;4.70;99.90;;;;;;4169534;28;20390;-73
2023/11/28 10:16:44;;;;;;;2.25;1.83;;;4.70;99.90;;;;;;4168247;28;20125;-73
2023/11/28 10:18:46;;;;;;;3.00;1.58;;;4.70;99.90;;;;;;4165636;28;20033;-73
2023/11/28 10:20:47;;;;;;;;;;;4.60;99.90;;;;;;4165140;28;20403;-72
2023/11/28 10:22:51;;;;;;;1.98;1.38;;;4.60;99.90;;;;;;4162526;28;19930;-73
2023/11/28 10:24:55;;;;;;;2.50;1.58;;;4.60;99.90;;;;;;4152550;28;20515;-73
2023/11/28 10:26:56;;;;;;;2.55;2.08;;;4.50;99.90;;;;;;4168944;28;20044;-72
2023/11/28 10:28:57;;;;;;;2.10;1.90;;;4.40;99.90;;;;;;4169811;28;20044;-73
2023/11/28 10:30:57;;;;;;;3.00;2.10;;;4.40;99.90;;;;;;4171856;28;20044;-71
2023/11/28 10:33:00;;;;;;;2.78;2.10;;;4.40;99.90;;;;;;4172316;28;20635;-71
2023/11/28 10:35:01;;;;;;;2.78;1.98;;;4.40;99.90;;;;;;4153773;28;20484;-72
2023/11/28 10:37:02;;;;;;;4.22;2.67;;;4.40;99.90;;;;;;4168772;28;20060;-71
2023/11/28 10:39:03;;;;;;;2.97;2.25;;;4.40;99.90;;;;;;4151847;28;20034;-71